createdAt,value
2019-01-26T20:03:06.153Z,36.83
2019-01-26T20:03:37.086Z,36.86
2019-01-26T20:04:08.242Z,36.77
2019-01-26T20:04:39.335Z,36.93
2019-01-26T20:05:18.553Z,36.91
2019-01-26T20:13:14.616Z,31.78
2019-01-26T20:36:00.210Z,72.65
2019-01-26T20:38:26.268Z,73.08
2019-01-26T20:40:52.250Z,73.80
2019-01-26T20:43:18.232Z,73.44
2019-01-26T20:45:44.224Z,73.05
2019-01-26T20:48:10.176Z,73.62
2019-01-26T20:50:36.084Z,73.63
2019-01-26T20:53:02.030Z,73.93
2019-01-26T20:55:27.977Z,73.97
2019-01-26T20:57:53.834Z,73.90
2019-01-26T21:00:25.287Z,73.45
2019-01-26T21:02:51.257Z,73.10
2019-01-26T21:05:17.348Z,73.10
2019-01-26T21:07:43.439Z,73.35
2019-01-26T21:10:17.462Z,72.99
2019-01-26T21:12:43.978Z,73.13
2019-01-26T21:15:09.980Z,72.97
2019-01-26T21:17:35.897Z,72.95
2019-01-26T21:20:03.610Z,72.95
2019-01-26T21:22:29.502Z,72.92
2019-01-26T21:24:55.358Z,72.98
2019-01-26T21:27:21.891Z,72.73
2019-01-26T21:29:47.837Z,73.00
2019-01-26T21:32:13.895Z,73.39
2019-01-26T21:34:39.744Z,73.58
2019-01-26T21:37:05.644Z,74.42
2019-01-26T21:39:31.519Z,74.74
2019-01-26T21:41:57.513Z,75.80
2019-01-26T21:44:23.426Z,75.34
2019-01-26T21:46:49.523Z,75.83
2019-01-26T21:49:15.551Z,76.00
2019-01-26T21:51:41.488Z,76.36
2019-01-26T21:54:07.491Z,76.26
2019-01-26T21:56:33.356Z,76.53
2019-01-26T21:58:59.241Z,76.54
2019-01-26T22:01:25.063Z,76.63
2019-01-26T22:03:50.926Z,76.79
2019-01-26T22:06:17.000Z,76.53
2019-01-26T22:08:43.038Z,76.51
2019-01-26T22:11:08.932Z,76.13
2019-01-26T22:13:34.902Z,76.63
2019-01-26T22:16:00.821Z,76.67
2019-01-26T22:18:26.786Z,76.20
2019-01-26T22:20:52.742Z,76.35
2019-01-26T22:23:18.608Z,76.18
2019-01-26T22:25:44.450Z,76.50
2019-01-26T22:28:10.430Z,76.44
2019-01-26T22:30:36.414Z,76.47
2019-01-26T22:33:02.461Z,75.93
2019-01-26T22:35:28.928Z,75.97
2019-01-26T22:37:55.398Z,76.28
2019-01-26T22:40:27.890Z,76.25
2019-01-26T22:42:53.840Z,76.42
2019-01-26T22:45:19.917Z,77.07
2019-01-26T22:47:45.876Z,78.34
2019-01-26T22:50:17.834Z,78.34
2019-01-26T22:52:44.261Z,78.80
2019-01-26T22:55:13.036Z,78.90
2019-01-26T22:57:38.873Z,78.76
2019-01-26T23:00:27.004Z,78.97
2019-01-26T23:02:52.967Z,79.80
2019-01-26T23:05:25.398Z,79.80
2019-01-26T23:07:51.956Z,79.63
2019-01-26T23:10:21.654Z,79.43
2019-01-26T23:13:03.239Z,79.60
2019-01-26T23:15:50.955Z,79.65
2019-01-26T23:18:26.413Z,79.99
2019-01-26T23:20:59.321Z,80.22
2019-01-26T23:23:35.151Z,80.05
2019-01-26T23:26:16.694Z,79.85
2019-01-26T23:29:15.159Z,79.77
2019-01-26T23:31:41.048Z,79.55
2019-01-26T23:34:06.998Z,79.63
2019-01-26T23:36:32.992Z,79.60
2019-01-26T23:39:02.434Z,79.63
2019-01-26T23:41:26.716Z,79.57
2019-01-26T23:43:52.568Z,79.62
2019-01-26T23:46:18.415Z,79.35
2019-01-26T23:48:44.573Z,79.36
2019-01-26T23:51:10.615Z,79.52
2019-01-26T23:53:36.785Z,79.22
2019-01-26T23:56:03.141Z,79.06
2019-01-26T23:58:28.995Z,79.19
